Wetterdaten: Woche 04.06.18 - 10.06.18 (KW23)
Datum Zeit Temp. I. Temp. A. Feuchte I. Feuchte A. Luftdruck Regen Wind Richtung Sonnenschein UV Solar Taupunkt Windchill Windben
04.06.2018 00:00 25,4 C 17,4 C 56 % 82 % 1014,3 hPa 0,0 l/m 0,0 km/h (0 Bft) N 0,00 h 0,0 UV-I 0 W/m 14,2 C 17,4 C 0,0 km/h (0 Bft)
04.06.2018 01:00 25,2 C 16,6 C 58 % 84 % 1013,9 hPa 0,0 l/m 0,0 km/h (0 Bft) O-NO 0,00 h 0,0 UV-I 0 W/m 13,9 C 16,6 C 0,4 km/h (0 Bft)
04.06.2018 02:00 25,1 C 15,7 C 59 % 87 % 1013,4 hPa 0,0 l/m 0,0 km/h (0 Bft) N 0,00 h 0,0 UV-I 0 W/m 13,5 C 15,7 C 0,3 km/h (0 Bft)
04.06.2018 03:00 25,0 C 14,8 C 59 % 89 % 1013,0 hPa 0,0 l/m 0,0 km/h (0 Bft) N 0,00 h 0,0 UV-I 0 W/m 12,9 C 14,8 C 0,1 km/h (0 Bft)
04.06.2018 04:00 24,9 C 13,7 C 60 % 92 % 1012,7 hPa 0,0 l/m 0,0 km/h (0 Bft) N 0,00 h 0,0 UV-I 0 W/m 12,5 C 13,7 C 0,0 km/h (0 Bft)
04.06.2018 05:00 24,8 C 13,1 C 60 % 93 % 1012,6 hPa 0,0 l/m 0,0 km/h (0 Bft) N 0,00 h 0,0 UV-I 11 W/m 12,0 C 13,1 C 0,0 km/h (0 Bft)
04.06.2018 06:00 25,0 C 13,9 C 60 % 93 % 1012,5 hPa 0,0 l/m 0,0 km/h (0 Bft) N 0,00 h 0,0 UV-I 26 W/m 12,7 C 13,9 C 0,0 km/h (0 Bft)
04.06.2018 07:00 25,1 C 17,0 C 59 % 87 % 1012,3 hPa 0,0 l/m 0,9 km/h (0 Bft) NO 0,67 h 0,9 UV-I 202 W/m 14,7 C 17,0 C 2,5 km/h (1 Bft)
04.06.2018 08:00 25,1 C 20,4 C 58 % 76 % 1011,9 hPa 0,0 l/m 0,8 km/h (0 Bft) O-NO 1,00 h 1,6 UV-I 436 W/m 15,9 C 20,4 C 2,6 km/h (1 Bft)
04.06.2018 09:00 25,1 C 22,4 C 57 % 67 % 1011,5 hPa 0,0 l/m 1,4 km/h (1 Bft) O-NO 1,00 h 2,8 UV-I 585 W/m 15,9 C 22,4 C 4,4 km/h (1 Bft)
04.06.2018 10:00 25,2 C 24,0 C 56 % 58 % 1011,3 hPa 0,0 l/m 0,9 km/h (0 Bft) NO 1,00 h 4,3 UV-I 741 W/m 15,2 C 24,0 C 3,1 km/h (1 Bft)
04.06.2018 11:00 25,5 C 25,1 C 55 % 54 % 1011,0 hPa 0,0 l/m 2,4 km/h (1 Bft) N 1,00 h 4,7 UV-I 792 W/m 15,0 C 25,0 C 5,3 km/h (1 Bft)
04.06.2018 12:00 25,6 C 25,2 C 54 % 53 % 1010,8 hPa 0,0 l/m 1,7 km/h (1 Bft) N-NO 1,00 h 4,9 UV-I 603 W/m 14,9 C 25,1 C 5,1 km/h (1 Bft)
04.06.2018 13:00 25,8 C 26,8 C 54 % 47 % 1010,2 hPa 0,0 l/m 1,3 km/h (1 Bft) O-NO 1,00 h 6,2 UV-I 851 W/m 14,4 C 26,7 C 4,0 km/h (1 Bft)
04.06.2018 14:00 25,8 C 27,4 C 53 % 42 % 1009,4 hPa 0,0 l/m 2,5 km/h (1 Bft) N-NW 1,00 h 5,7 UV-I 840 W/m 13,4 C 27,3 C 5,3 km/h (1 Bft)
04.06.2018 15:00 25,7 C 26,4 C 52 % 43 % 1008,8 hPa 0,0 l/m 3,5 km/h (1 Bft) N 0,60 h 3,2 UV-I 376 W/m 12,8 C 26,4 C 7,3 km/h (2 Bft)
04.06.2018 16:00 25,7 C 26,7 C 52 % 44 % 1008,1 hPa 0,0 l/m 3,8 km/h (1 Bft) N 0,90 h 3,0 UV-I 502 W/m 13,5 C 26,6 C 8,3 km/h (2 Bft)
04.06.2018 17:00 25,7 C 26,4 C 52 % 45 % 1007,8 hPa 0,0 l/m 6,2 km/h (2 Bft) N-NO 0,85 h 1,9 UV-I 391 W/m 13,6 C 26,1 C 11,6 km/h (2 Bft)
04.06.2018 18:00 25,7 C 24,9 C 52 % 46 % 1007,5 hPa 0,0 l/m 7,9 km/h (2 Bft) N-NO 0,00 h 1,0 UV-I 56 W/m 12,4 C 24,4 C 14,3 km/h (3 Bft)
04.06.2018 19:00 25,7 C 23,9 C 53 % 47 % 1007,4 hPa 0,0 l/m 3,5 km/h (1 Bft) N-NO 0,00 h 0,0 UV-I 34 W/m 11,9 C 23,7 C 7,2 km/h (2 Bft)
04.06.2018 20:00 25,7 C 22,4 C 52 % 54 % 1007,7 hPa 0,0 l/m 0,4 km/h (0 Bft) N 0,00 h 0,0 UV-I 17 W/m 12,6 C 22,4 C 1,2 km/h (1 Bft)
04.06.2018 21:00 25,7 C 20,7 C 52 % 61 % 1008,4 hPa 0,0 l/m 0,0 km/h (0 Bft) N 0,00 h 0,0 UV-I 6 W/m 12,9 C 20,7 C 0,0 km/h (0 Bft)
04.06.2018 22:00 25,5 C 19,4 C 51 % 67 % 1008,8 hPa 0,0 l/m 0,0 km/h (0 Bft) N 0,00 h 0,0 UV-I 0 W/m 13,1 C 19,4 C 0,0 km/h (0 Bft)
04.06.2018 23:00 25,4 C 18,0 C 51 % 74 % 1009,2 hPa 0,0 l/m 0,0 km/h (0 Bft) N 0,00 h 0,0 UV-I 0 W/m 13,2 C 18,0 C 0,0 km/h (0 Bft)
05.06.2018 00:00 25,3 C 16,5 C 53 % 80 % 1009,5 hPa 0,0 l/m 0,0 km/h (0 Bft) N 0,00 h 0,0 UV-I 0 W/m 13,1 C 16,5 C 0,0 km/h (0 Bft)
05.06.2018 01:00 25,1 C 15,3 C 54 % 86 % 1009,3 hPa 0,0 l/m 0,0 km/h (0 Bft) N 0,00 h 0,0 UV-I 0 W/m 12,9 C 15,3 C 0,0 km/h (0 Bft)
05.06.2018 02:00 25,0 C 14,3 C 55 % 88 % 1009,1 hPa 0,0 l/m 0,0 km/h (0 Bft) N 0,00 h 0,0 UV-I 0 W/m 12,4 C 14,3 C 0,0 km/h (0 Bft)
05.06.2018 03:00 24,9 C 13,7 C 56 % 91 % 1009,0 hPa 0,0 l/m 0,0 km/h (0 Bft) N 0,00 h 0,0 UV-I 0 W/m 12,1 C 13,7 C 0,0 km/h (0 Bft)
05.06.2018 04:00 24,8 C 12,8 C 57 % 92 % 1009,0 hPa 0,0 l/m 0,0 km/h (0 Bft) N 0,00 h 0,0 UV-I 0 W/m 11,6 C 12,8 C 0,0 km/h (0 Bft)
05.06.2018 05:00 24,7 C 12,2 C 58 % 93 % 1009,3 hPa 0,0 l/m 0,0 km/h (0 Bft) N 0,00 h 0,0 UV-I 12 W/m 11,1 C 12,2 C 0,0 km/h (0 Bft)
05.06.2018 06:00 24,9 C 12,9 C 57 % 93 % 1009,6 hPa 0,0 l/m 0,0 km/h (0 Bft) N 0,00 h 0,0 UV-I 31 W/m 11,8 C 12,9 C 0,0 km/h (0 Bft)
05.06.2018 07:00 25,1 C 15,6 C 57 % 88 % 1009,8 hPa 0,0 l/m 0,0 km/h (0 Bft) N 0,67 h 0,9 UV-I 201 W/m 13,7 C 15,6 C 0,0 km/h (0 Bft)
05.06.2018 08:00 25,0 C 19,6 C 56 % 78 % 1009,9 hPa 0,0 l/m 2,2 km/h (1 Bft) N-NW 1,00 h 1,6 UV-I 428 W/m 15,6 C 19,5 C 5,2 km/h (1 Bft)
05.06.2018 09:00 25,0 C 22,1 C 56 % 70 % 1009,7 hPa 0,0 l/m 2,0 km/h (1 Bft) N 1,00 h 2,8 UV-I 585 W/m 16,4 C 22,0 C 5,2 km/h (1 Bft)
05.06.2018 10:00 25,2 C 23,6 C 56 % 64 % 1009,7 hPa 0,0 l/m 2,7 km/h (1 Bft) NW 1,00 h 4,1 UV-I 697 W/m 16,3 C 23,6 C 5,9 km/h (2 Bft)
05.06.2018 11:00 25,4 C 25,3 C 55 % 58 % 1009,7 hPa 0,0 l/m 2,1 km/h (1 Bft) N-NW 0,98 h 5,2 UV-I 786 W/m 16,3 C 25,3 C 5,7 km/h (1 Bft)
05.06.2018 12:00 25,7 C 26,6 C 54 % 50 % 1009,4 hPa 0,0 l/m 3,9 km/h (1 Bft) NW 1,00 h 6,2 UV-I 866 W/m 15,2 C 26,5 C 8,7 km/h (2 Bft)
05.06.2018 13:00 25,9 C 27,1 C 54 % 48 % 1009,2 hPa 0,0 l/m 5,1 km/h (1 Bft) NW 1,00 h 5,9 UV-I 773 W/m 15,2 C 26,9 C 10,7 km/h (2 Bft)
05.06.2018 14:00 25,9 C 26,7 C 54 % 49 % 1009,0 hPa 0,0 l/m 5,4 km/h (1 Bft) N-NW 1,00 h 5,3 UV-I 712 W/m 15,1 C 26,5 C 10,1 km/h (2 Bft)
05.06.2018 15:00 25,8 C 26,9 C 53 % 47 % 1008,8 hPa 0,0 l/m 7,9 km/h (2 Bft) N-NW 1,00 h 4,7 UV-I 730 W/m 14,6 C 26,4 C 14,1 km/h (3 Bft)
05.06.2018 16:00 25,8 C 26,3 C 53 % 47 % 1008,7 hPa 0,0 l/m 8,2 km/h (2 Bft) N 1,00 h 3,4 UV-I 552 W/m 14,1 C 25,8 C 14,8 km/h (3 Bft)
05.06.2018 17:00 25,7 C 25,3 C 54 % 46 % 1008,6 hPa 0,0 l/m 8,8 km/h (2 Bft) N-NO 0,85 h 2,0 UV-I 375 W/m 12,7 C 24,7 C 14,2 km/h (3 Bft)
05.06.2018 18:00 25,7 C 24,0 C 55 % 48 % 1008,7 hPa 0,0 l/m 6,3 km/h (2 Bft) N 0,00 h 1,1 UV-I 48 W/m 12,2 C 23,6 C 12,0 km/h (2 Bft)
05.06.2018 19:00 25,7 C 22,7 C 55 % 57 % 1009,0 hPa 0,0 l/m 6,7 km/h (2 Bft) N 0,00 h 0,0 UV-I 38 W/m 13,8 C 22,2 C 11,9 km/h (2 Bft)
05.06.2018 20:00 25,7 C 21,2 C 54 % 65 % 1009,4 hPa 0,0 l/m 4,8 km/h (1 Bft) N 0,00 h 0,0 UV-I 21 W/m 14,3 C 20,8 C 9,6 km/h (2 Bft)
05.06.2018 21:00 25,8 C 19,3 C 56 % 72 % 1010,2 hPa 0,0 l/m 2,7 km/h (1 Bft) N 0,00 h 0,0 UV-I 6 W/m 14,1 C 19,2 C 5,6 km/h (1 Bft)
05.06.2018 22:00 25,6 C 17,9 C 54 % 77 % 1010,9 hPa 0,0 l/m 0,0 km/h (0 Bft) N 0,00 h 0,0 UV-I 0 W/m 13,9 C 17,9 C 0,0 km/h (0 Bft)
05.06.2018 23:00 25,5 C 16,8 C 54 % 81 % 1011,5 hPa 0,0 l/m 0,0 km/h (0 Bft) N 0,00 h 0,0 UV-I 0 W/m 13,4 C 16,8 C 0,0 km/h (0 Bft)
06.06.2018 00:00 25,4 C 15,7 C 55 % 84 % 1011,8 hPa 0,0 l/m 1,2 km/h (1 Bft) N-NO 0,00 h 0,0 UV-I 0 W/m 13,0 C 15,7 C 2,7 km/h (1 Bft)
06.06.2018 01:00 25,2 C 14,8 C 56 % 86 % 1011,6 hPa 0,0 l/m 0,3 km/h (0 Bft) N-NO 0,00 h 0,0 UV-I 0 W/m 12,6 C 14,8 C 0,6 km/h (0 Bft)
06.06.2018 02:00 25,1 C 14,2 C 57 % 88 % 1011,7 hPa 0,0 l/m 0,2 km/h (0 Bft) O-NO 0,00 h 0,0 UV-I 0 W/m 12,2 C 14,2 C 0,6 km/h (0 Bft)
06.06.2018 03:00 25,0 C 13,9 C 57 % 88 % 1011,6 hPa 0,0 l/m 1,0 km/h (0 Bft) NO 0,00 h 0,0 UV-I 0 W/m 11,9 C 13,9 C 2,6 km/h (1 Bft)
06.06.2018 04:00 24,9 C 13,6 C 58 % 89 % 1011,4 hPa 0,0 l/m 0,7 km/h (0 Bft) N-NO 0,00 h 0,0 UV-I 0 W/m 11,8 C 13,6 C 1,9 km/h (1 Bft)
06.06.2018 05:00 24,9 C 13,8 C 58 % 89 % 1011,6 hPa 0,0 l/m 0,2 km/h (0 Bft) N-NO 0,00 h 0,0 UV-I 11 W/m 12,0 C 13,8 C 0,9 km/h (0 Bft)
06.06.2018 06:00 25,2 C 14,4 C 57 % 89 % 1011,9 hPa 0,0 l/m 0,1 km/h (0 Bft) N-NO 0,00 h 0,0 UV-I 29 W/m 12,5 C 14,4 C 0,9 km/h (0 Bft)
06.06.2018 07:00 25,4 C 16,4 C 57 % 84 % 1012,1 hPa 0,0 l/m 1,5 km/h (1 Bft) NO 0,67 h 0,9 UV-I 203 W/m 13,7 C 16,4 C 4,7 km/h (1 Bft)
06.06.2018 08:00 25,3 C 18,7 C 54 % 77 % 1012,2 hPa 0,0 l/m 0,8 km/h (0 Bft) O-NO 1,00 h 1,4 UV-I 333 W/m 14,6 C 18,7 C 2,9 km/h (1 Bft)
06.06.2018 09:00 25,4 C 20,5 C 54 % 72 % 1012,3 hPa 0,0 l/m 2,3 km/h (1 Bft) O-SO 1,00 h 2,5 UV-I 522 W/m 15,2 C 20,5 C 6,3 km/h (2 Bft)
06.06.2018 10:00 25,8 C 21,9 C 54 % 68 % 1012,3 hPa 0,0 l/m 2,8 km/h (1 Bft) O-SO 1,00 h 3,0 UV-I 457 W/m 15,7 C 21,8 C 7,8 km/h (2 Bft)
06.06.2018 11:00 26,1 C 23,5 C 53 % 64 % 1012,4 hPa 0,0 l/m 3,2 km/h (1 Bft) O 1,00 h 4,6 UV-I 701 W/m 16,3 C 23,4 C 8,8 km/h (2 Bft)
06.06.2018 12:00 26,4 C 24,8 C 53 % 59 % 1012,3 hPa 0,0 l/m 3,2 km/h (1 Bft) O-NO 1,00 h 5,1 UV-I 794 W/m 16,3 C 24,7 C 8,3 km/h (2 Bft)
06.06.2018 13:00 26,4 C 25,0 C 53 % 57 % 1012,1 hPa 0,0 l/m 2,9 km/h (1 Bft) O-SO 1,00 h 4,3 UV-I 517 W/m 15,8 C 25,0 C 8,9 km/h (2 Bft)
06.06.2018 14:00 26,2 C 25,5 C 53 % 54 % 1011,8 hPa 0,0 l/m 2,9 km/h (1 Bft) O-NO 0,78 h 3,3 UV-I 377 W/m 15,4 C 25,4 C 8,0 km/h (2 Bft)
06.06.2018 15:00 26,0 C 25,3 C 53 % 53 % 1011,5 hPa 0,0 l/m 2,8 km/h (1 Bft) O-NO 0,82 h 2,5 UV-I 347 W/m 15,1 C 25,3 C 7,5 km/h (2 Bft)
06.06.2018 16:00 25,8 C 24,6 C 53 % 57 % 1011,3 hPa 0,0 l/m 1,8 km/h (1 Bft) O-NO 0,08 h 1,0 UV-I 116 W/m 15,5 C 24,6 C 5,0 km/h (1 Bft)
06.06.2018 17:00 25,8 C 23,3 C 54 % 66 % 1011,2 hPa 0,0 l/m 1,7 km/h (1 Bft) N 0,30 h 0,8 UV-I 139 W/m 16,7 C 23,3 C 4,1 km/h (1 Bft)
06.06.2018 18:00 25,9 C 24,4 C 55 % 60 % 1011,4 hPa 0,0 l/m 1,3 km/h (1 Bft) NO 0,70 h 0,7 UV-I 161 W/m 16,1 C 24,4 C 4,5 km/h (1 Bft)
06.06.2018 19:00 25,8 C 23,7 C 57 % 59 % 1011,8 hPa 0,0 l/m 1,0 km/h (0 Bft) O-NO 0,00 h 0,5 UV-I 72 W/m 15,1 C 23,7 C 4,4 km/h (1 Bft)
06.06.2018 20:00 25,8 C 22,3 C 55 % 61 % 1012,1 hPa 0,0 l/m 0,1 km/h (0 Bft) O-NO 0,00 h 0,0 UV-I 20 W/m 14,6 C 22,3 C 0,7 km/h (0 Bft)
06.06.2018 21:00 25,8 C 21,0 C 55 % 64 % 1012,7 hPa 0,0 l/m 0,5 km/h (0 Bft) NO 0,00 h 0,0 UV-I 6 W/m 13,8 C 21,0 C 2,4 km/h (1 Bft)
06.06.2018 22:00 25,7 C 20,6 C 55 % 63 % 1013,0 hPa 0,0 l/m 2,7 km/h (1 Bft) O-NO 0,00 h 0,0 UV-I 0 W/m 13,3 C 20,6 C 8,2 km/h (2 Bft)
06.06.2018 23:00 25,6 C 20,1 C 53 % 65 % 1013,2 hPa 0,0 l/m 1,9 km/h (1 Bft) O-NO 0,00 h 0,0 UV-I 0 W/m 13,2 C 20,1 C 6,2 km/h (2 Bft)
07.06.2018 00:00 25,4 C 19,0 C 54 % 69 % 1013,5 hPa 0,0 l/m 0,7 km/h (0 Bft) O-NO 0,00 h 0,0 UV-I 0 W/m 13,3 C 19,0 C 3,1 km/h (1 Bft)
07.06.2018 01:00 25,3 C 18,0 C 54 % 74 % 1013,7 hPa 0,0 l/m 0,0 km/h (0 Bft) N 0,00 h 0,0 UV-I 0 W/m 13,4 C 18,0 C 0,1 km/h (0 Bft)
07.06.2018 02:00 25,2 C 17,5 C 55 % 77 % 1013,2 hPa 0,0 l/m 0,2 km/h (0 Bft) O-NO 0,00 h 0,0 UV-I 0 W/m 13,3 C 17,5 C 1,4 km/h (1 Bft)
07.06.2018 03:00 25,1 C 17,0 C 56 % 80 % 1013,1 hPa 0,0 l/m 0,2 km/h (0 Bft) O-NO 0,00 h 0,0 UV-I 0 W/m 13,5 C 17,0 C 1,2 km/h (1 Bft)
07.06.2018 04:00 25,0 C 16,3 C 56 % 82 % 1013,5 hPa 0,0 l/m 0,0 km/h (0 Bft) O-NO 0,00 h 0,0 UV-I 0 W/m 13,2 C 16,3 C 0,3 km/h (0 Bft)
07.06.2018 05:00 24,9 C 15,7 C 56 % 84 % 1013,8 hPa 0,0 l/m 0,5 km/h (0 Bft) O-NO 0,00 h 0,0 UV-I 12 W/m 13,0 C 15,7 C 2,6 km/h (1 Bft)
07.06.2018 06:00 25,2 C 16,0 C 55 % 84 % 1014,2 hPa 0,0 l/m 0,9 km/h (0 Bft) NO 0,00 h 0,0 UV-I 39 W/m 13,3 C 16,0 C 3,5 km/h (1 Bft)
07.06.2018 07:00 25,3 C 17,2 C 55 % 83 % 1014,6 hPa 0,0 l/m 0,5 km/h (0 Bft) NO 0,65 h 0,8 UV-I 197 W/m 14,3 C 17,2 C 1,8 km/h (1 Bft)
07.06.2018 08:00 25,3 C 18,9 C 55 % 77 % 1015,0 hPa 0,0 l/m 1,8 km/h (1 Bft) O-SO 1,00 h 1,6 UV-I 403 W/m 14,9 C 18,9 C 5,0 km/h (1 Bft)
07.06.2018 09:00 25,5 C 20,5 C 54 % 72 % 1015,0 hPa 0,0 l/m 2,1 km/h (1 Bft) O-SO 1,00 h 2,6 UV-I 548 W/m 15,3 C 20,4 C 6,1 km/h (2 Bft)
07.06.2018 10:00 25,9 C 22,3 C 54 % 66 % 1014,8 hPa 0,0 l/m 5,9 km/h (2 Bft) O-SO 1,00 h 3,9 UV-I 677 W/m 15,6 C 21,9 C 11,8 km/h (2 Bft)
07.06.2018 11:00 26,3 C 24,1 C 52 % 58 % 1015,0 hPa 0,0 l/m 4,4 km/h (1 Bft) O-SO 1,00 h 4,8 UV-I 693 W/m 15,3 C 23,9 C 10,6 km/h (2 Bft)
07.06.2018 12:00 26,4 C 25,1 C 52 % 56 % 1014,9 hPa 0,0 l/m 3,9 km/h (1 Bft) O 1,00 h 5,5 UV-I 752 W/m 15,6 C 25,1 C 9,0 km/h (2 Bft)
07.06.2018 13:00 26,4 C 26,3 C 52 % 51 % 1014,3 hPa 0,0 l/m 4,6 km/h (1 Bft) O 1,00 h 5,9 UV-I 814 W/m 15,4 C 26,2 C 10,6 km/h (2 Bft)
07.06.2018 14:00 26,4 C 27,0 C 52 % 47 % 1013,7 hPa 0,0 l/m 3,2 km/h (1 Bft) O 0,98 h 5,3 UV-I 764 W/m 14,6 C 26,9 C 8,5 km/h (2 Bft)
07.06.2018 15:00 26,2 C 27,4 C 52 % 47 % 1013,0 hPa 0,0 l/m 3,7 km/h (1 Bft) O-NO 0,93 h 4,0 UV-I 629 W/m 15,3 C 27,4 C 8,5 km/h (2 Bft)
07.06.2018 16:00 26,1 C 27,1 C 52 % 46 % 1012,7 hPa 0,0 l/m 3,6 km/h (1 Bft) O-NO 0,90 h 2,8 UV-I 463 W/m 14,4 C 27,0 C 8,7 km/h (2 Bft)
07.06.2018 17:00 26,0 C 26,7 C 52 % 45 % 1012,3 hPa 0,0 l/m 3,6 km/h (1 Bft) O-SO 0,75 h 1,8 UV-I 340 W/m 13,9 C 26,7 C 8,7 km/h (2 Bft)
07.06.2018 18:00 25,9 C 25,8 C 52 % 47 % 1012,2 hPa 0,0 l/m 4,1 km/h (1 Bft) O-SO 0,02 h 0,9 UV-I 120 W/m 13,6 C 25,8 C 8,9 km/h (2 Bft)
07.06.2018 19:00 25,8 C 25,0 C 52 % 49 % 1012,5 hPa 0,0 l/m 5,1 km/h (1 Bft) O-SO 0,00 h 0,6 UV-I 75 W/m 13,4 C 24,9 C 9,9 km/h (2 Bft)
07.06.2018 20:00 25,8 C 23,7 C 52 % 52 % 1012,6 hPa 0,0 l/m 0,9 km/h (0 Bft) SO 0,00 h 0,0 UV-I 19 W/m 13,3 C 23,7 C 2,1 km/h (1 Bft)
07.06.2018 21:00 25,8 C 22,0 C 52 % 60 % 1013,0 hPa 0,0 l/m 0,0 km/h (0 Bft) N 0,00 h 0,0 UV-I 0 W/m 13,8 C 22,0 C 0,0 km/h (0 Bft)
07.06.2018 22:00 25,7 C 20,2 C 52 % 70 % 1013,2 hPa 0,0 l/m 0,7 km/h (0 Bft) N-NW 0,00 h 0,0 UV-I 0 W/m 14,5 C 20,3 C 2,3 km/h (1 Bft)
07.06.2018 23:00 25,7 C 18,9 C 53 % 77 % 1013,0 hPa 0,0 l/m 0,2 km/h (0 Bft) N-NO 0,00 h 0,0 UV-I 0 W/m 14,8 C 18,9 C 0,9 km/h (0 Bft)
08.06.2018 00:00 25,5 C 17,9 C 54 % 80 % 1012,8 hPa 0,0 l/m 0,0 km/h (0 Bft) N 0,00 h 0,0 UV-I 0 W/m 14,4 C 17,9 C 0,0 km/h (0 Bft)
08.06.2018 01:00 25,3 C 16,5 C 56 % 84 % 1012,8 hPa 0,0 l/m 0,0 km/h (0 Bft) N 0,00 h 0,0 UV-I 0 W/m 13,8 C 16,5 C 0,1 km/h (0 Bft)
08.06.2018 02:00 25,2 C 16,2 C 56 % 84 % 1012,6 hPa 0,0 l/m 0,0 km/h (0 Bft) N 0,00 h 0,0 UV-I 0 W/m 13,4 C 16,2 C 0,3 km/h (0 Bft)
08.06.2018 03:00 25,2 C 15,5 C 57 % 87 % 1012,2 hPa 0,0 l/m 0,0 km/h (0 Bft) N 0,00 h 0,0 UV-I 0 W/m 13,3 C 15,5 C 0,0 km/h (0 Bft)
08.06.2018 04:00 25,1 C 15,1 C 58 % 89 % 1012,3 hPa 0,0 l/m 0,0 km/h (0 Bft) N 0,00 h 0,0 UV-I 0 W/m 13,2 C 15,1 C 0,0 km/h (0 Bft)
08.06.2018 05:00 25,0 C 14,7 C 58 % 91 % 1012,2 hPa 0,0 l/m 0,0 km/h (0 Bft) N 0,00 h 0,0 UV-I 15 W/m 13,3 C 14,7 C 0,0 km/h (0 Bft)
08.06.2018 06:00 25,3 C 15,4 C 57 % 92 % 1012,6 hPa 0,0 l/m 0,0 km/h (0 Bft) N 0,00 h 0,0 UV-I 35 W/m 14,1 C 15,4 C 0,0 km/h (0 Bft)
08.06.2018 07:00 25,5 C 17,9 C 57 % 86 % 1012,4 hPa 0,0 l/m 0,3 km/h (0 Bft) NO 0,65 h 0,8 UV-I 204 W/m 15,5 C 17,9 C 1,3 km/h (1 Bft)
08.06.2018 08:00 25,6 C 20,6 C 57 % 79 % 1012,6 hPa 0,0 l/m 4,1 km/h (1 Bft) O-SO 0,98 h 1,5 UV-I 357 W/m 16,8 C 20,3 C 7,2 km/h (2 Bft)
08.06.2018 09:00 25,8 C 21,5 C 57 % 75 % 1012,7 hPa 0,0 l/m 5,0 km/h (1 Bft) O-SO 1,00 h 2,4 UV-I 442 W/m 16,9 C 21,3 C 9,2 km/h (2 Bft)
08.06.2018 10:00 26,0 C 22,4 C 56 % 72 % 1012,5 hPa 0,0 l/m 4,1 km/h (1 Bft) NO 1,00 h 2,8 UV-I 398 W/m 17,1 C 22,3 C 8,7 km/h (2 Bft)
08.06.2018 11:00 26,3 C 24,1 C 56 % 66 % 1012,1 hPa 0,0 l/m 4,0 km/h (1 Bft) O-NO 1,00 h 4,4 UV-I 642 W/m 17,3 C 24,0 C 9,0 km/h (2 Bft)
08.06.2018 12:00 26,6 C 25,9 C 55 % 59 % 1011,5 hPa 0,0 l/m 5,6 km/h (1 Bft) O-NO 1,00 h 5,8 UV-I 785 W/m 17,2 C 25,7 C 11,3 km/h (2 Bft)
08.06.2018 13:00 26,6 C 26,5 C 55 % 54 % 1011,0 hPa 0,0 l/m 4,7 km/h (1 Bft) O 1,00 h 6,0 UV-I 805 W/m 16,4 C 26,5 C 10,3 km/h (2 Bft)
08.06.2018 14:00 26,6 C 27,8 C 55 % 48 % 1010,4 hPa 0,0 l/m 5,0 km/h (1 Bft) NO 1,00 h 5,8 UV-I 877 W/m 15,7 C 27,6 C 10,7 km/h (2 Bft)
08.06.2018 15:00 26,4 C 28,4 C 55 % 47 % 1009,8 hPa 0,0 l/m 4,1 km/h (1 Bft) NO 1,00 h 4,6 UV-I 720 W/m 16,1 C 28,3 C 9,9 km/h (2 Bft)
08.06.2018 16:00 26,3 C 27,7 C 54 % 48 % 1009,2 hPa 0,0 l/m 4,7 km/h (1 Bft) O 1,00 h 3,3 UV-I 568 W/m 15,7 C 27,6 C 10,9 km/h (2 Bft)
08.06.2018 17:00 26,3 C 27,4 C 55 % 50 % 1009,0 hPa 0,0 l/m 3,7 km/h (1 Bft) O-NO 1,00 h 1,9 UV-I 376 W/m 16,0 C 27,3 C 9,8 km/h (2 Bft)
08.06.2018 18:00 26,2 C 25,5 C 54 % 58 % 1008,9 hPa 0,0 l/m 3,6 km/h (1 Bft) O-NO 1,00 h 1,1 UV-I 199 W/m 16,5 C 25,4 C 10,6 km/h (2 Bft)
08.06.2018 19:00 26,1 C 23,7 C 55 % 66 % 1008,9 hPa 0,0 l/m 0,9 km/h (0 Bft) O-NO 0,03 h 0,6 UV-I 78 W/m 16,9 C 23,7 C 3,3 km/h (1 Bft)
08.06.2018 20:00 25,9 C 22,2 C 56 % 73 % 1009,3 hPa 0,0 l/m 0,0 km/h (0 Bft) N 0,00 h 0,0 UV-I 20 W/m 17,2 C 22,2 C 0,0 km/h (0 Bft)
08.06.2018 21:00 26,1 C 21,0 C 57 % 78 % 1009,6 hPa 0,0 l/m 0,0 km/h (0 Bft) N 0,00 h 0,0 UV-I 6 W/m 17,0 C 21,0 C 0,0 km/h (0 Bft)
08.06.2018 22:00 26,0 C 20,3 C 58 % 81 % 1010,0 hPa 0,0 l/m 0,0 km/h (0 Bft) N 0,00 h 0,0 UV-I 0 W/m 16,9 C 20,3 C 0,0 km/h (0 Bft)
08.06.2018 23:00 25,9 C 19,3 C 58 % 84 % 1009,5 hPa 0,0 l/m 0,0 km/h (0 Bft) N 0,00 h 0,0 UV-I 0 W/m 16,4 C 19,3 C 0,0 km/h (0 Bft)
09.06.2018 00:00 25,8 C 18,5 C 59 % 85 % 1009,2 hPa 0,0 l/m 0,0 km/h (0 Bft) N 0,00 h 0,0 UV-I 0 W/m 15,9 C 18,5 C 0,0 km/h (0 Bft)
09.06.2018 01:00 25,7 C 17,6 C 59 % 88 % 1009,6 hPa 0,0 l/m 0,0 km/h (0 Bft) N 0,00 h 0,0 UV-I 0 W/m 15,7 C 17,6 C 0,0 km/h (0 Bft)
09.06.2018 02:00 25,6 C 16,7 C 60 % 91 % 1009,8 hPa 0,0 l/m 0,0 km/h (0 Bft) N 0,00 h 0,0 UV-I 0 W/m 15,2 C 16,7 C 0,0 km/h (0 Bft)
09.06.2018 03:00 25,5 C 16,1 C 60 % 92 % 1009,5 hPa 0,0 l/m 0,0 km/h (0 Bft) N 0,00 h 0,0 UV-I 0 W/m 14,8 C 16,1 C 0,0 km/h (0 Bft)
09.06.2018 04:00 25,4 C 15,8 C 61 % 92 % 1009,3 hPa 0,0 l/m 0,0 km/h (0 Bft) N 0,00 h 0,0 UV-I 0 W/m 14,6 C 15,8 C 0,0 km/h (0 Bft)
09.06.2018 05:00 25,4 C 15,6 C 61 % 93 % 1009,4 hPa 0,0 l/m 0,0 km/h (0 Bft) N 0,00 h 0,0 UV-I 12 W/m 14,4 C 15,6 C 0,0 km/h (0 Bft)
09.06.2018 06:00 25,7 C 16,1 C 60 % 93 % 1009,7 hPa 0,0 l/m 0,0 km/h (0 Bft) N 0,00 h 0,0 UV-I 36 W/m 15,0 C 16,1 C 0,0 km/h (0 Bft)
09.06.2018 07:00 25,8 C 19,2 C 60 % 87 % 1009,7 hPa 0,0 l/m 0,1 km/h (0 Bft) NO 0,65 h 0,8 UV-I 188 W/m 16,9 C 19,2 C 0,5 km/h (0 Bft)
09.06.2018 08:00 25,8 C 22,0 C 60 % 80 % 1009,8 hPa 0,0 l/m 1,2 km/h (1 Bft) NO 0,53 h 1,3 UV-I 369 W/m 18,3 C 22,0 C 3,2 km/h (1 Bft)
09.06.2018 09:00 25,9 C 25,1 C 60 % 72 % 1009,8 hPa 0,0 l/m 1,6 km/h (1 Bft) N 1,47 h 2,9 UV-I 598 W/m 19,6 C 25,1 C 3,8 km/h (1 Bft)
09.06.2018 10:00 26,0 C 25,3 C 61 % 69 % 1009,8 hPa 0,0 l/m 2,9 km/h (1 Bft) O-NO 0,67 h 2,5 UV-I 439 W/m 19,2 C 25,3 C 7,4 km/h (2 Bft)
09.06.2018 11:00 26,1 C 22,9 C 61 % 75 % 1009,9 hPa 0,0 l/m 0,8 km/h (0 Bft) S-SW 0,75 h 1,5 UV-I 183 W/m 18,3 C 22,9 C 2,1 km/h (1 Bft)
09.06.2018 12:00 25,5 C 22,5 C 60 % 72 % 1009,8 hPa 0,0 l/m 0,5 km/h (0 Bft) W 0,58 h 1,3 UV-I 170 W/m 17,2 C 22,5 C 1,4 km/h (1 Bft)
09.06.2018 13:00 25,8 C 22,9 C 60 % 72 % 1010,0 hPa 0,0 l/m 4,1 km/h (1 Bft) N 0,80 h 1,7 UV-I 212 W/m 17,6 C 22,7 C 8,0 km/h (2 Bft)
09.06.2018 14:00 25,8 C 21,2 C 58 % 72 % 1009,9 hPa 0,0 l/m 2,7 km/h (1 Bft) N 0,00 h 0,8 UV-I 75 W/m 16,1 C 21,2 C 6,7 km/h (2 Bft)
09.06.2018 15:00 25,3 C 20,2 C 60 % 82 % 1009,8 hPa 0,4 l/m 0,0 km/h (0 Bft) N 0,00 h 0,7 UV-I 68 W/m 17,0 C 20,2 C 0,1 km/h (0 Bft)
09.06.2018 16:00 25,1 C 20,3 C 64 % 88 % 1009,6 hPa 0,2 l/m 0,0 km/h (0 Bft) N 0,87 h 1,2 UV-I 160 W/m 18,2 C 20,3 C 0,0 km/h (0 Bft)
09.06.2018 17:00 25,0 C 20,7 C 65 % 86 % 1009,5 hPa 0,0 l/m 0,0 km/h (0 Bft) N 0,70 h 1,0 UV-I 172 W/m 18,3 C 20,7 C 0,0 km/h (0 Bft)
09.06.2018 18:00 25,0 C 21,2 C 66 % 86 % 1009,2 hPa 0,0 l/m 0,1 km/h (0 Bft) W 0,00 h 0,7 UV-I 115 W/m 18,7 C 21,2 C 0,2 km/h (0 Bft)
09.06.2018 19:00 24,9 C 21,0 C 67 % 87 % 1009,8 hPa 0,0 l/m 0,0 km/h (0 Bft) N 0,00 h 0,0 UV-I 53 W/m 18,6 C 21,0 C 0,1 km/h (0 Bft)
09.06.2018 20:00 24,4 C 20,5 C 70 % 89 % 1010,2 hPa 0,0 l/m 0,0 km/h (0 Bft) N 0,00 h 0,0 UV-I 13 W/m 18,7 C 20,5 C 0,0 km/h (0 Bft)
09.06.2018 21:00 24,1 C 20,0 C 70 % 91 % 1010,4 hPa 0,0 l/m 0,0 km/h (0 Bft) O-SO 0,00 h 0,0 UV-I 0 W/m 18,4 C 20,0 C 0,3 km/h (0 Bft)
09.06.2018 22:00 24,1 C 19,2 C 67 % 86 % 1011,0 hPa 0,0 l/m 0,0 km/h (0 Bft) O-NO 0,00 h 0,0 UV-I 0 W/m 16,8 C 19,2 C 0,2 km/h (0 Bft)
09.06.2018 23:00 24,3 C 18,8 C 66 % 87 % 1011,2 hPa 0,0 l/m 0,1 km/h (0 Bft) W-NW 0,00 h 0,0 UV-I 0 W/m 16,5 C 18,8 C 0,5 km/h (0 Bft)
10.06.2018 00:00 23,6 C 18,2 C 67 % 89 % 1010,9 hPa 0,0 l/m 0,0 km/h (0 Bft) N 0,00 h 0,0 UV-I 0 W/m 16,3 C 18,2 C 0,0 km/h (0 Bft)
10.06.2018 01:00 23,2 C 17,4 C 68 % 90 % 1010,4 hPa 0,0 l/m 0,0 km/h (0 Bft) N 0,00 h 0,0 UV-I 0 W/m 15,8 C 17,4 C 0,0 km/h (0 Bft)
10.06.2018 02:00 23,1 C 16,8 C 67 % 92 % 1010,1 hPa 0,0 l/m 0,0 km/h (0 Bft) N 0,00 h 0,0 UV-I 0 W/m 15,4 C 16,8 C 0,0 km/h (0 Bft)
10.06.2018 03:00 22,7 C 16,1 C 67 % 92 % 1010,1 hPa 0,0 l/m 0,0 km/h (0 Bft) N 0,00 h 0,0 UV-I 0 W/m 14,8 C 16,1 C 0,0 km/h (0 Bft)
10.06.2018 04:00 22,4 C 15,4 C 67 % 93 % 1010,1 hPa 0,0 l/m 0,0 km/h (0 Bft) N 0,00 h 0,0 UV-I 0 W/m 14,2 C 15,4 C 0,0 km/h (0 Bft)
10.06.2018 05:00 22,3 C 15,1 C 67 % 94 % 1010,2 hPa 0,0 l/m 0,0 km/h (0 Bft) N 0,00 h 0,0 UV-I 12 W/m 14,2 C 15,1 C 0,0 km/h (0 Bft)
10.06.2018 06:00 22,4 C 15,3 C 67 % 94 % 1010,3 hPa 0,0 l/m 0,0 km/h (0 Bft) N 0,00 h 0,5 UV-I 48 W/m 14,4 C 15,3 C 0,0 km/h (0 Bft)
10.06.2018 07:00 22,5 C 16,8 C 68 % 94 % 1010,4 hPa 0,0 l/m 0,0 km/h (0 Bft) N 0,57 h 0,8 UV-I 152 W/m 15,9 C 16,8 C 0,0 km/h (0 Bft)
10.06.2018 08:00 23,4 C 19,1 C 68 % 89 % 1010,4 hPa 0,0 l/m 0,4 km/h (0 Bft) SW 1,00 h 1,4 UV-I 254 W/m 17,3 C 19,1 C 1,0 km/h (0 Bft)
10.06.2018 09:00 24,3 C 21,1 C 65 % 82 % 1010,2 hPa 0,0 l/m 1,4 km/h (1 Bft) S 1,00 h 2,5 UV-I 431 W/m 17,9 C 21,1 C 3,6 km/h (1 Bft)
10.06.2018 10:00 25,6 C 23,3 C 64 % 76 % 1010,1 hPa 0,0 l/m 2,3 km/h (1 Bft) W-SW 1,00 h 3,9 UV-I 606 W/m 18,8 C 23,2 C 5,1 km/h (1 Bft)
10.06.2018 11:00 26,9 C 24,1 C 59 % 70 % 1009,8 hPa 0,0 l/m 3,8 km/h (1 Bft) S 1,00 h 5,6 UV-I 782 W/m 18,4 C 24,1 C 8,4 km/h (2 Bft)
10.06.2018 12:00 27,1 C 25,6 C 57 % 63 % 1009,5 hPa 0,0 l/m 4,3 km/h (1 Bft) S 1,00 h 6,1 UV-I 787 W/m 18,0 C 25,5 C 9,0 km/h (2 Bft)
10.06.2018 13:00 26,9 C 26,4 C 57 % 57 % 1009,1 hPa 0,0 l/m 2,7 km/h (1 Bft) S 0,83 h 5,0 UV-I 539 W/m 17,3 C 26,4 C 6,4 km/h (2 Bft)
10.06.2018 14:00 26,7 C 27,2 C 56 % 53 % 1008,6 hPa 0,0 l/m 4,8 km/h (1 Bft) W-SW 1,00 h 4,7 UV-I 636 W/m 16,8 C 27,1 C 10,4 km/h (2 Bft)
10.06.2018 15:00 26,8 C 28,1 C 54 % 48 % 1008,5 hPa 0,0 l/m 8,0 km/h (2 Bft) W-SW 0,98 h 4,4 UV-I 667 W/m 16,0 C 27,8 C 15,5 km/h (3 Bft)
10.06.2018 16:00 26,8 C 27,7 C 52 % 48 % 1008,1 hPa 0,0 l/m 7,8 km/h (2 Bft) W 0,90 h 3,2 UV-I 553 W/m 15,8 C 27,4 C 15,0 km/h (3 Bft)
10.06.2018 17:00 26,6 C 27,3 C 53 % 52 % 1008,0 hPa 0,0 l/m 8,3 km/h (2 Bft) NW 0,80 h 2,0 UV-I 399 W/m 16,5 C 26,9 C 14,9 km/h (3 Bft)
10.06.2018 18:00 26,4 C 25,6 C 56 % 61 % 1008,3 hPa 0,0 l/m 3,9 km/h (1 Bft) N-NW 0,00 h 0,9 UV-I 89 W/m 17,4 C 25,5 C 8,5 km/h (2 Bft)
10.06.2018 19:00 26,2 C 24,7 C 57 % 58 % 1008,3 hPa 0,0 l/m 3,2 km/h (1 Bft) W-NW 0,00 h 0,6 UV-I 41 W/m 15,8 C 24,6 C 7,2 km/h (2 Bft)
10.06.2018 20:00 26,0 C 23,6 C 56 % 62 % 1008,6 hPa 0,0 l/m 1,8 km/h (1 Bft) W-NW 0,00 h 0,0 UV-I 32 W/m 16,0 C 23,6 C 5,6 km/h (1 Bft)
10.06.2018 21:00 25,7 C 22,2 C 56 % 68 % 1008,8 hPa 0,0 l/m 0,0 km/h (0 Bft) W 0,00 h 0,0 UV-I 5 W/m 16,0 C 22,2 C 0,5 km/h (0 Bft)
10.06.2018 22:00 25,0 C 20,3 C 58 % 76 % 1009,5 hPa 0,0 l/m 0,0 km/h (0 Bft) N 0,00 h 0,0 UV-I 0 W/m 15,9 C 20,3 C 0,0 km/h (0 Bft)
10.06.2018 23:00 24,5 C 19,1 C 61 % 81 % 1010,1 hPa 0,0 l/m 0,0 km/h (0 Bft) N 0,00 h 0,0 UV-I 0 W/m 15,7 C 19,1 C 0,0 km/h (0 Bft)
Min-Datum _ 10.06.18 05.06.18 04.06.18 04.06.18 04.06.18 - 04.06.18 - - - - 05.06.18 05.06.18 04.06.18
_ Min-Zeit 05:23 05:27 21:49 14:56 18:52 - 00:00 - - - - 05:27 05:27 00:00
Minimum _ 22,2 C 11,9 C 51 % 37 % 1007,3 hPa - 0,0 km/h (0 Bft) - - - - 10,8 C 11,9 C 0,0 km/h (0 Bft)
Max-Datum _ 10.06.18 08.06.18 09.06.18 10.06.18 07.06.18 09.06.18 04.06.18 - 09.06.18 10.06.18 04.06.18 09.06.18 08.06.18 05.06.18
_ Max-Zeit 11:57 15:12 20:44 06:12 08:27 15:43 18:20 - 09:30 13:24 11:56 10:30 15:13 15:31
Maximum _ 27,2 C 29,1 C 71 % 95 % 1015,1 hPa 0,4 l/m 17,7 km/h
N-NO (3 Bft)
- 0,98 h 7,0 UV-I 995 W/m 20,4 C 29,0 C 29,0 km/h
N-NW (5 Bft)
Durchschnitt _ 25,5 C 20,8 C 57 % 72 % 1010,9 hPa #0,6 l/m 1,8 km/h (1 Bft) N #68:52 h 2,9 UV-I 343 W/m 15,0 C 20,8 C 4,2 km/h (1 Bft)